createdAt,value
2022-09-24T00:01:54.164Z,18.50
2022-09-24T00:04:27.601Z,18.50
2022-09-24T00:06:55.883Z,18.50
2022-09-24T00:09:24.489Z,18.50
2022-09-24T00:11:53.445Z,18.50
2022-09-24T00:14:22.062Z,18.50
2022-09-24T00:16:50.229Z,18.50
2022-09-24T00:19:18.429Z,18.40
2022-09-24T00:21:48.120Z,18.40
2022-09-24T00:24:32.518Z,18.40
2022-09-24T00:27:00.717Z,18.40
2022-09-24T00:29:28.852Z,18.40
2022-09-24T00:31:57.129Z,18.40
2022-09-24T00:34:25.263Z,18.40
2022-09-24T00:36:54.922Z,18.40
2022-09-24T00:39:23.097Z,18.40
2022-09-24T00:41:51.329Z,18.40
2022-09-24T00:44:53.791Z,18.40
2022-09-24T00:47:37.187Z,18.40
2022-09-24T00:50:16.059Z,18.40
2022-09-24T00:52:50.070Z,18.40
2022-09-24T00:55:20.898Z,18.40
2022-09-24T00:57:52.414Z,18.40
2022-09-24T01:00:22.004Z,18.40
2022-09-24T01:02:55.091Z,18.40
2022-09-24T01:05:23.275Z,18.40
2022-09-24T01:07:52.822Z,18.40
2022-09-24T01:10:41.430Z,18.40
2022-09-24T01:13:20.047Z,18.40
2022-09-24T01:15:53.681Z,18.40
2022-09-24T01:18:29.307Z,18.40
2022-09-24T01:21:10.974Z,18.40
2022-09-24T01:24:04.697Z,18.40
2022-09-24T01:26:55.665Z,18.40
2022-09-24T01:29:44.000Z,18.40
2022-09-24T01:32:18.878Z,18.40
2022-09-24T01:34:51.497Z,18.40
2022-09-24T01:37:24.293Z,18.40
2022-09-24T01:39:55.607Z,18.40
2022-09-24T01:42:25.115Z,18.30
2022-09-24T01:44:57.901Z,18.30
2022-09-24T01:47:34.703Z,18.40
2022-09-24T01:50:04.819Z,18.40
2022-09-24T01:52:36.600Z,18.30
2022-09-24T01:55:07.365Z,18.40
2022-09-24T01:57:40.194Z,18.40
2022-09-24T02:00:13.213Z,18.40
2022-09-24T02:02:46.401Z,18.40
2022-09-24T02:05:21.143Z,18.30
2022-09-24T02:07:58.224Z,18.40
2022-09-24T02:10:28.821Z,18.40
2022-09-24T02:13:00.957Z,18.30
2022-09-24T02:15:35.171Z,18.40
2022-09-24T02:18:07.204Z,18.40
2022-09-24T02:20:37.934Z,18.30
2022-09-24T02:23:07.360Z,18.30
2022-09-24T02:25:40.514Z,18.30
2022-09-24T02:28:08.662Z,18.30
2022-09-24T02:30:42.982Z,18.30
2022-09-24T02:33:28.259Z,18.30
2022-09-24T02:35:56.412Z,18.30
2022-09-24T02:38:24.732Z,18.30
2022-09-24T02:40:53.513Z,18.30
2022-09-24T02:43:21.739Z,18.30
2022-09-24T02:45:51.306Z,18.30
2022-09-24T02:48:19.649Z,18.30
2022-09-24T02:50:47.780Z,18.30
2022-09-24T02:53:16.017Z,18.30
2022-09-24T02:55:44.231Z,18.30
2022-09-24T02:58:12.529Z,18.30
2022-09-24T03:00:40.734Z,18.30
2022-09-24T03:03:10.360Z,18.30
2022-09-24T03:05:38.568Z,18.30
2022-09-24T03:08:07.576Z,18.30
2022-09-24T03:10:35.809Z,18.30
2022-09-24T03:13:04.092Z,18.30
2022-09-24T03:15:32.189Z,18.30
2022-09-24T03:18:00.299Z,18.30
2022-09-24T03:20:29.762Z,18.30
2022-09-24T03:22:57.995Z,18.30
2022-09-24T03:25:27.271Z,18.30
2022-09-24T03:27:55.431Z,18.30
2022-09-24T03:30:40.788Z,18.30
2022-09-24T03:33:08.941Z,18.20
2022-09-24T03:35:38.452Z,18.10
2022-09-24T03:38:06.647Z,18.10
2022-09-24T03:40:34.840Z,18.00
2022-09-24T03:43:03.058Z,17.90
2022-09-24T03:45:31.153Z,17.80
2022-09-24T03:47:59.408Z,17.70
2022-09-24T03:50:27.501Z,17.70
2022-09-24T03:52:57.275Z,17.60
2022-09-24T03:55:25.575Z,17.60
2022-09-24T03:57:53.722Z,17.60
2022-09-24T04:00:22.096Z,17.60
2022-09-24T04:02:50.312Z,17.60
2022-09-24T04:05:18.712Z,17.70
2022-09-24T04:07:47.283Z,17.70
2022-09-24T04:10:16.940Z,17.70
2022-09-24T04:12:46.112Z,17.70
2022-09-24T04:15:15.808Z,17.70
2022-09-24T04:17:44.016Z,17.70
2022-09-24T04:20:13.007Z,17.60
2022-09-24T04:22:41.112Z,17.60
2022-09-24T04:25:14.564Z,17.60
2022-09-24T04:27:44.525Z,17.60
2022-09-24T04:30:15.130Z,17.60
2022-09-24T04:32:43.330Z,17.60
2022-09-24T04:35:11.480Z,17.60
2022-09-24T04:37:39.760Z,17.60
2022-09-24T04:40:12.596Z,17.60
2022-09-24T04:42:41.517Z,17.60
2022-09-24T04:45:12.277Z,17.60
2022-09-24T04:47:41.934Z,17.60
2022-09-24T04:50:12.485Z,17.60
2022-09-24T04:52:40.921Z,17.60
2022-09-24T04:55:10.305Z,17.60
2022-09-24T04:57:38.550Z,17.60
2022-09-24T05:00:09.108Z,17.60
2022-09-24T05:02:39.085Z,17.60
2022-09-24T05:05:08.019Z,17.60
2022-09-24T05:07:36.756Z,17.60
2022-09-24T05:10:06.389Z,17.60
2022-09-24T05:12:35.476Z,17.60
2022-09-24T05:15:04.060Z,17.60
2022-09-24T05:17:34.134Z,17.50
2022-09-24T05:20:03.831Z,17.50
2022-09-24T05:22:31.910Z,17.50
2022-09-24T05:25:00.026Z,17.60
2022-09-24T05:27:27.137Z,17.60
2022-09-24T05:29:56.116Z,17.60
2022-09-24T05:32:24.236Z,17.60
2022-09-24T05:34:53.493Z,17.60
2022-09-24T05:37:23.079Z,17.60
2022-09-24T05:39:51.228Z,17.60
2022-09-24T05:42:19.416Z,17.60
2022-09-24T05:44:52.048Z,17.60
2022-09-24T05:47:20.613Z,17.60
2022-09-24T05:49:48.753Z,17.60
2022-09-24T05:52:16.899Z,17.60
2022-09-24T05:54:46.818Z,17.60
2022-09-24T05:57:15.703Z,17.60
2022-09-24T05:59:43.838Z,17.60
2022-09-24T06:02:12.658Z,17.60
2022-09-24T06:04:40.897Z,17.60
2022-09-24T06:07:09.164Z,17.60
2022-09-24T06:09:37.313Z,17.60
2022-09-24T06:12:10.873Z,17.60
2022-09-24T06:14:39.088Z,17.60
2022-09-24T06:17:07.211Z,17.60
2022-09-24T06:19:35.815Z,17.60
2022-09-24T06:22:04.145Z,17.60
2022-09-24T06:24:32.301Z,17.60
2022-09-24T06:27:00.419Z,17.70
2022-09-24T06:29:29.934Z,17.60
2022-09-24T06:31:58.126Z,17.60
2022-09-24T06:34:26.318Z,17.60
2022-09-24T06:36:55.870Z,17.60
2022-09-24T06:39:24.368Z,17.70
2022-09-24T06:41:53.126Z,17.70
2022-09-24T06:44:21.304Z,17.60
2022-09-24T06:46:50.905Z,17.60
2022-09-24T06:49:19.180Z,17.70
2022-09-24T06:51:47.283Z,17.70
2022-09-24T06:54:15.537Z,17.70
2022-09-24T06:56:43.741Z,17.70
2022-09-24T06:59:12.139Z,17.70
2022-09-24T07:01:40.395Z,17.70
2022-09-24T07:04:10.085Z,17.70
2022-09-24T07:06:52.131Z,17.70
2022-09-24T07:09:20.234Z,17.70
2022-09-24T07:11:48.455Z,17.70
2022-09-24T07:14:16.630Z,17.70
2022-09-24T07:16:47.030Z,17.70
2022-09-24T07:19:16.580Z,17.70
2022-09-24T07:21:44.804Z,17.70
2022-09-24T07:24:12.995Z,17.70
2022-09-24T07:26:41.226Z,17.70
2022-09-24T07:29:09.486Z,17.70
2022-09-24T07:31:37.785Z,17.70
2022-09-24T07:34:09.042Z,17.70
2022-09-24T07:36:38.786Z,17.70
2022-09-24T07:39:07.166Z,17.70
2022-09-24T07:41:39.964Z,17.70
2022-09-24T07:44:10.198Z,17.70
2022-09-24T07:46:38.493Z,17.70
2022-09-24T07:49:06.875Z,17.60
2022-09-24T07:51:35.421Z,17.50
2022-09-24T07:54:05.933Z,17.50
2022-09-24T07:56:34.179Z,17.50
2022-09-24T07:59:02.571Z,17.50
2022-09-24T08:01:32.553Z,17.50
2022-09-24T08:04:00.845Z,17.50
2022-09-24T08:06:42.437Z,17.50
2022-09-24T08:09:16.754Z,17.50
2022-09-24T08:11:45.063Z,17.60
2022-09-24T08:14:13.167Z,17.60
2022-09-24T08:16:41.338Z,17.60
2022-09-24T08:19:14.084Z,17.70
2022-09-24T08:21:42.378Z,17.70
2022-09-24T08:24:10.694Z,17.70
2022-09-24T08:26:40.233Z,17.70
2022-09-24T08:29:08.411Z,17.70
2022-09-24T08:31:37.342Z,17.70
2022-09-24T08:34:05.643Z,17.70
2022-09-24T08:36:33.855Z,17.80
2022-09-24T08:39:01.913Z,17.80
2022-09-24T08:41:48.540Z,17.80
2022-09-24T08:44:41.811Z,17.90
2022-09-24T08:47:25.702Z,17.90
2022-09-24T08:50:03.077Z,17.90
2022-09-24T08:52:41.739Z,17.90
2022-09-24T08:55:14.947Z,17.90
2022-09-24T08:57:51.939Z,17.90
2022-09-24T09:00:20.251Z,17.90
2022-09-24T09:02:56.677Z,18.00
2022-09-24T09:05:40.644Z,18.00
2022-09-24T09:08:41.501Z,18.00
2022-09-24T09:11:06.487Z,18.00
2022-09-24T09:13:41.581Z,18.00
2022-09-24T09:16:22.294Z,18.10
2022-09-24T09:18:52.800Z,18.10
2022-09-24T09:21:29.269Z,18.10
2022-09-24T09:24:00.600Z,18.10
2022-09-24T09:26:28.799Z,18.10
2022-09-24T09:29:02.576Z,18.10
2022-09-24T09:31:40.838Z,18.10
2022-09-24T09:34:24.638Z,18.10
2022-09-24T09:37:06.215Z,18.10
2022-09-24T09:39:41.851Z,18.10
2022-09-24T09:42:25.503Z,18.10
2022-09-24T09:44:55.632Z,18.10
2022-09-24T09:47:33.739Z,18.10
2022-09-24T09:50:06.997Z,18.10
2022-09-24T09:52:39.867Z,18.00
2022-09-24T09:55:08.728Z,18.00
2022-09-24T09:57:38.689Z,18.00
2022-09-24T10:00:25.658Z,18.00
2022-09-24T10:02:54.759Z,18.00
2022-09-24T10:05:28.765Z,18.00
2022-09-24T10:07:58.171Z,18.00
2022-09-24T10:10:28.025Z,18.00
2022-09-24T10:13:07.971Z,18.00
2022-09-24T10:15:49.210Z,18.00
2022-09-24T10:18:18.188Z,18.00
2022-09-24T10:20:49.597Z,18.00
2022-09-24T10:23:22.647Z,18.00
2022-09-24T10:25:54.363Z,18.00
2022-09-24T10:28:40.174Z,18.00
2022-09-24T10:31:14.591Z,18.00
2022-09-24T10:33:44.088Z,18.00
2022-09-24T10:36:17.392Z,18.00
2022-09-24T10:38:45.778Z,18.00
2022-09-24T10:41:26.100Z,18.00
2022-09-24T10:43:55.536Z,18.00
2022-09-24T10:46:48.634Z,18.00
2022-09-24T10:49:31.998Z,18.00
2022-09-24T10:52:12.979Z,18.00
2022-09-24T10:54:51.248Z,17.90
2022-09-24T10:57:29.803Z,18.00
2022-09-24T11:00:05.194Z,18.10
2022-09-24T11:02:55.675Z,18.10
2022-09-24T11:05:25.505Z,18.20
2022-09-24T11:08:02.823Z,18.20
2022-09-24T11:11:09.698Z,18.30
2022-09-24T11:13:49.132Z,18.30
2022-09-24T11:16:50.199Z,18.40
2022-09-24T11:19:34.604Z,18.50
2022-09-24T11:22:14.386Z,18.50
2022-09-24T11:25:10.324Z,18.50
2022-09-24T11:27:49.844Z,18.50
2022-09-24T11:30:21.035Z,18.50
2022-09-24T11:33:06.627Z,18.50
2022-09-24T11:36:04.324Z,18.50
2022-09-24T11:38:47.709Z,18.50
2022-09-24T11:41:30.344Z,18.50
2022-09-24T11:44:21.433Z,18.50
2022-09-24T11:47:04.384Z,18.50
2022-09-24T11:49:43.778Z,18.40
2022-09-24T11:52:21.399Z,18.40
2022-09-24T11:54:57.390Z,18.40
2022-09-24T11:57:29.007Z,18.40
2022-09-24T12:00:04.982Z,18.30
2022-09-24T12:02:38.298Z,18.10
2022-09-24T12:05:14.221Z,18.00
2022-09-24T12:07:50.679Z,18.00
2022-09-24T12:10:31.472Z,18.00
2022-09-24T12:13:07.016Z,18.00
2022-09-24T12:15:47.294Z,18.00
2022-09-24T12:18:21.339Z,18.00
2022-09-24T12:20:53.111Z,18.00
2022-09-24T12:23:28.264Z,18.10
2022-09-24T12:25:58.592Z,18.10
2022-09-24T12:28:52.331Z,18.10
2022-09-24T12:31:46.600Z,18.20
2022-09-24T12:34:21.570Z,18.20
2022-09-24T12:37:00.258Z,18.20
2022-09-24T12:39:37.072Z,18.10
2022-09-24T12:42:08.467Z,18.10
2022-09-24T12:44:43.530Z,18.00
2022-09-24T12:47:22.111Z,17.90
2022-09-24T12:49:54.748Z,17.90
2022-09-24T12:52:29.229Z,17.70
2022-09-24T12:55:02.294Z,17.60
2022-09-24T12:57:35.534Z,17.60
2022-09-24T13:00:06.144Z,17.60
2022-09-24T13:02:46.536Z,17.80
2022-09-24T13:05:28.306Z,17.80
2022-09-24T13:07:59.768Z,17.90
2022-09-24T13:10:31.186Z,17.90
2022-09-24T13:13:01.049Z,17.90
2022-09-24T13:15:34.540Z,17.90
2022-09-24T13:18:19.200Z,17.90
2022-09-24T13:21:01.222Z,17.90
2022-09-24T13:23:47.095Z,17.90
2022-09-24T13:26:30.163Z,18.00
2022-09-24T13:29:01.016Z,17.80
2022-09-24T13:31:38.753Z,17.90
2022-09-24T13:34:18.480Z,17.80
2022-09-24T13:36:52.028Z,17.70
2022-09-24T13:39:25.562Z,17.60
2022-09-24T13:42:02.391Z,17.60
2022-09-24T13:44:36.076Z,17.50
2022-09-24T13:47:12.298Z,17.50
2022-09-24T13:49:44.696Z,17.50
2022-09-24T13:52:22.889Z,17.50
2022-09-24T13:54:55.389Z,17.40
2022-09-24T13:57:27.136Z,17.30
2022-09-24T14:00:17.128Z,17.20
2022-09-24T14:02:54.897Z,17.30
2022-09-24T14:05:24.183Z,17.20
2022-09-24T14:08:02.443Z,17.20
2022-09-24T14:10:30.804Z,17.20
2022-09-24T14:13:15.560Z,17.10
2022-09-24T14:15:55.293Z,17.20
2022-09-24T14:18:24.588Z,17.20
2022-09-24T14:20:59.218Z,17.00
2022-09-24T14:23:33.037Z,17.10
2022-09-24T14:26:02.306Z,17.10
2022-09-24T14:28:33.024Z,17.00
2022-09-24T14:31:03.084Z,17.00
2022-09-24T14:33:33.835Z,17.00
2022-09-24T14:36:03.518Z,17.00
2022-09-24T14:38:35.772Z,17.00
2022-09-24T14:41:08.952Z,16.90
2022-09-24T14:43:46.544Z,16.90
2022-09-24T14:46:20.019Z,16.90
2022-09-24T14:48:48.593Z,16.80
2022-09-24T14:51:26.841Z,16.90
2022-09-24T14:54:03.176Z,16.80
2022-09-24T14:56:32.910Z,16.90
2022-09-24T14:59:02.729Z,16.90
2022-09-24T15:01:35.051Z,16.90
2022-09-24T15:04:05.612Z,16.90
2022-09-24T15:06:36.427Z,16.90
2022-09-24T15:09:07.386Z,17.00
2022-09-24T15:11:37.214Z,17.10
2022-09-24T15:14:25.059Z,17.00
2022-09-24T15:16:54.031Z,17.10
2022-09-24T15:19:23.962Z,17.00
2022-09-24T15:21:53.458Z,17.00
2022-09-24T15:24:22.145Z,17.00
2022-09-24T15:27:01.099Z,17.10
2022-09-24T15:29:30.728Z,17.00
2022-09-24T15:31:59.796Z,17.00
2022-09-24T15:34:28.452Z,17.10
2022-09-24T15:36:59.667Z,17.00
2022-09-24T15:39:29.152Z,17.10
2022-09-24T15:41:57.223Z,17.10
2022-09-24T15:44:32.940Z,17.10
2022-09-24T15:47:03.509Z,17.10
2022-09-24T15:49:32.154Z,17.10
2022-09-24T15:52:07.014Z,17.10
2022-09-24T15:54:35.804Z,17.10
2022-09-24T15:57:04.396Z,17.10
2022-09-24T15:59:32.696Z,17.20
2022-09-24T16:02:04.902Z,17.20
2022-09-24T16:04:33.024Z,17.20
2022-09-24T16:07:01.328Z,17.20
2022-09-24T16:09:29.388Z,17.20
2022-09-24T16:11:57.688Z,17.20
2022-09-24T16:14:25.839Z,17.20
2022-09-24T16:16:55.709Z,17.30
2022-09-24T16:19:25.272Z,17.30
2022-09-24T16:21:53.437Z,17.30
2022-09-24T16:24:21.750Z,17.30
2022-09-24T16:26:50.023Z,17.20
2022-09-24T16:29:18.490Z,17.20
2022-09-24T16:31:46.900Z,17.20
2022-09-24T16:34:15.248Z,17.20
2022-09-24T16:36:44.877Z,17.20
2022-09-24T16:39:15.715Z,17.20
2022-09-24T16:41:44.440Z,17.20
2022-09-24T16:44:15.207Z,17.20
2022-09-24T16:46:44.230Z,17.20
2022-09-24T16:49:12.635Z,17.30
2022-09-24T16:51:40.891Z,17.20
2022-09-24T16:54:10.774Z,17.20
2022-09-24T16:56:38.879Z,17.20
2022-09-24T16:59:07.258Z,17.20
2022-09-24T17:01:35.481Z,17.20
2022-09-24T17:04:03.926Z,17.20
2022-09-24T17:06:34.079Z,17.20
2022-09-24T17:09:19.991Z,17.20
2022-09-24T17:11:49.765Z,17.20
2022-09-24T17:14:18.904Z,17.20
2022-09-24T17:16:47.508Z,17.10
2022-09-24T17:19:16.459Z,17.10
2022-09-24T17:21:50.072Z,17.00
2022-09-24T17:24:21.470Z,17.00
2022-09-24T17:26:51.730Z,16.90
2022-09-24T17:29:20.799Z,16.90
2022-09-24T17:31:49.108Z,16.80
2022-09-24T17:34:17.367Z,16.90
2022-09-24T17:36:46.279Z,16.80
2022-09-24T17:39:15.348Z,16.70
2022-09-24T17:41:44.386Z,16.70
2022-09-24T17:44:15.752Z,16.70
2022-09-24T17:46:45.715Z,16.60
2022-09-24T17:49:15.482Z,16.60
2022-09-24T17:51:46.456Z,16.60
2022-09-24T17:54:18.972Z,16.60
2022-09-24T17:56:47.135Z,16.60
2022-09-24T17:59:22.871Z,16.60
2022-09-24T18:01:55.846Z,16.60
2022-09-24T18:04:28.312Z,16.60
2022-09-24T18:06:56.527Z,16.60
2022-09-24T18:09:28.296Z,16.60
2022-09-24T18:11:58.241Z,16.60
2022-09-24T18:14:31.241Z,16.60
2022-09-24T18:17:01.822Z,16.50
2022-09-24T18:19:31.643Z,16.60
2022-09-24T18:22:03.485Z,16.60
2022-09-24T18:24:33.453Z,16.60
2022-09-24T18:27:03.404Z,16.50
2022-09-24T18:29:34.809Z,16.60
2022-09-24T18:32:04.820Z,16.60
2022-09-24T18:34:34.766Z,16.60
2022-09-24T18:37:06.053Z,16.60
2022-09-24T18:39:34.245Z,16.60
2022-09-24T18:42:07.094Z,16.60
2022-09-24T18:44:42.203Z,16.60
2022-09-24T18:47:14.629Z,16.70
2022-09-24T18:49:42.829Z,16.60
2022-09-24T18:52:14.035Z,16.70
2022-09-24T18:54:42.409Z,16.70
2022-09-24T18:57:15.248Z,16.70
2022-09-24T18:59:48.635Z,16.70
2022-09-24T19:02:19.861Z,16.70
2022-09-24T19:04:48.042Z,16.70
2022-09-24T19:07:20.982Z,16.70
2022-09-24T19:09:52.052Z,16.70
2022-09-24T19:12:23.069Z,16.70
2022-09-24T19:14:59.249Z,16.80
2022-09-24T19:17:28.563Z,16.80
2022-09-24T19:20:00.817Z,16.80
2022-09-24T19:22:30.132Z,16.80
2022-09-24T19:25:02.846Z,16.70
2022-09-24T19:27:33.289Z,16.70
2022-09-24T19:30:06.895Z,16.70
2022-09-24T19:32:40.168Z,16.70
2022-09-24T19:35:11.015Z,16.80
2022-09-24T19:37:40.417Z,16.70
2022-09-24T19:40:12.604Z,16.80
2022-09-24T19:42:43.912Z,16.80
2022-09-24T19:45:17.308Z,16.80
2022-09-24T19:47:47.144Z,16.80
2022-09-24T19:50:19.722Z,16.80
2022-09-24T19:52:51.120Z,16.80
2022-09-24T19:55:28.592Z,16.80
2022-09-24T19:58:02.378Z,16.70
2022-09-24T20:00:33.603Z,16.80
2022-09-24T20:03:03.014Z,16.80
2022-09-24T20:05:34.294Z,16.70
2022-09-24T20:08:04.422Z,16.70
2022-09-24T20:10:33.063Z,16.70
2022-09-24T20:13:02.261Z,16.70
2022-09-24T20:15:33.756Z,16.70
2022-09-24T20:18:04.143Z,16.70
2022-09-24T20:20:34.871Z,16.80
2022-09-24T20:23:04.652Z,16.70
2022-09-24T20:25:51.645Z,16.70
2022-09-24T20:28:22.531Z,16.70
2022-09-24T20:30:54.143Z,16.70
2022-09-24T20:33:24.059Z,16.70
2022-09-24T20:35:56.515Z,16.70
2022-09-24T20:38:27.295Z,16.70
2022-09-24T20:40:58.057Z,16.70
2022-09-24T20:43:29.860Z,16.70
2022-09-24T20:46:01.156Z,16.60
2022-09-24T20:48:34.936Z,16.60
2022-09-24T20:51:10.293Z,16.60
2022-09-24T20:53:42.653Z,16.70
2022-09-24T20:56:12.236Z,16.60
2022-09-24T20:58:43.805Z,16.70
2022-09-24T21:01:14.590Z,16.60
2022-09-24T21:03:46.325Z,16.60
2022-09-24T21:06:18.733Z,16.60
2022-09-24T21:08:49.914Z,16.60
2022-09-24T21:11:22.173Z,16.60
2022-09-24T21:13:51.923Z,16.60
2022-09-24T21:16:25.146Z,16.70
2022-09-24T21:18:55.333Z,16.60
2022-09-24T21:21:29.744Z,16.60
2022-09-24T21:24:00.869Z,16.50
2022-09-24T21:26:31.787Z,16.50
2022-09-24T21:29:05.105Z,16.50
2022-09-24T21:31:41.707Z,16.40
2022-09-24T21:34:11.973Z,16.40
2022-09-24T21:36:44.583Z,16.30
2022-09-24T21:39:17.931Z,16.10
2022-09-24T21:41:51.486Z,15.90
2022-09-24T21:44:20.252Z,15.90
2022-09-24T21:46:54.599Z,16.00
2022-09-24T21:49:30.236Z,16.00
2022-09-24T21:52:00.772Z,15.90
2022-09-24T21:54:30.337Z,16.00
2022-09-24T21:57:02.889Z,15.90
2022-09-24T21:59:49.735Z,15.90
2022-09-24T22:02:21.357Z,15.90
2022-09-24T22:04:53.890Z,15.90
2022-09-24T22:07:24.607Z,15.70
2022-09-24T22:09:56.347Z,15.70
2022-09-24T22:12:24.470Z,15.70
2022-09-24T22:14:54.353Z,15.70
2022-09-24T22:17:25.662Z,15.80
2022-09-24T22:19:54.868Z,15.80
2022-09-24T22:22:26.040Z,15.80
2022-09-24T22:24:58.816Z,15.90
2022-09-24T22:27:28.676Z,15.90
2022-09-24T22:29:59.751Z,15.90
2022-09-24T22:32:29.327Z,15.90
2022-09-24T22:35:32.055Z,15.90
2022-09-24T22:38:01.669Z,15.90
2022-09-24T22:40:29.898Z,15.90
2022-09-24T22:42:59.060Z,15.80
2022-09-24T22:45:29.972Z,15.90
2022-09-24T22:48:05.397Z,15.90
2022-09-24T22:50:36.205Z,15.90
2022-09-24T22:53:06.910Z,15.90
2022-09-24T22:55:35.432Z,16.00
2022-09-24T22:58:04.664Z,16.00
2022-09-24T23:00:33.523Z,16.00
2022-09-24T23:03:03.089Z,16.00
2022-09-24T23:05:32.666Z,16.10
2022-09-24T23:08:01.074Z,16.10
2022-09-24T23:10:30.145Z,16.10
2022-09-24T23:12:59.184Z,16.10
2022-09-24T23:15:27.728Z,16.00
2022-09-24T23:17:56.007Z,16.00
2022-09-24T23:20:25.570Z,16.00
2022-09-24T23:22:53.679Z,16.00
2022-09-24T23:25:21.899Z,16.00
2022-09-24T23:27:49.993Z,16.00
2022-09-24T23:30:18.200Z,16.00
2022-09-24T23:32:46.337Z,16.00
2022-09-24T23:35:14.611Z,16.10
2022-09-24T23:37:44.159Z,16.00
2022-09-24T23:40:12.595Z,16.00
2022-09-24T23:42:40.744Z,16.10
2022-09-24T23:45:09.726Z,16.10
2022-09-24T23:47:37.862Z,16.10
2022-09-24T23:50:07.284Z,16.10
2022-09-24T23:52:35.398Z,16.10
2022-09-24T23:55:05.097Z,16.10
2022-09-24T23:57:33.277Z,16.00
